createdAt,value
2019-03-22T00:00:35.213Z,4.17
2019-03-22T00:03:04.719Z,4.02
2019-03-22T00:05:34.140Z,4.02
2019-03-22T00:08:03.833Z,3.95
2019-03-22T00:10:33.265Z,3.87
2019-03-22T00:13:02.710Z,3.91
2019-03-22T00:15:32.147Z,3.75
2019-03-22T00:18:01.590Z,3.77
2019-03-22T00:20:31.023Z,3.88
2019-03-22T00:23:00.455Z,3.92
2019-03-22T00:25:30.458Z,3.97
2019-03-22T00:27:59.894Z,3.93
2019-03-22T00:30:29.343Z,3.89
2019-03-22T00:32:58.782Z,3.92
2019-03-22T00:35:28.212Z,3.94
2019-03-22T00:37:57.644Z,3.83
2019-03-22T00:40:27.087Z,3.76
2019-03-22T00:42:56.886Z,3.70
2019-03-22T00:45:26.323Z,3.73
2019-03-22T00:47:55.759Z,3.54
2019-03-22T00:50:25.199Z,3.51
2019-03-22T00:52:54.632Z,3.49
2019-03-22T00:55:24.081Z,3.52
2019-03-22T00:57:53.514Z,3.47
2019-03-22T01:00:22.951Z,3.44
2019-03-22T01:02:52.397Z,3.50
2019-03-22T01:05:21.839Z,3.69
2019-03-22T01:07:51.343Z,3.51
2019-03-22T01:10:20.787Z,3.39
2019-03-22T01:12:50.213Z,3.27
2019-03-22T01:15:19.665Z,3.27
2019-03-22T01:17:49.099Z,3.24
2019-03-22T01:20:18.557Z,3.28
2019-03-22T01:22:47.979Z,3.28
2019-03-22T01:25:17.423Z,3.11
2019-03-22T01:27:46.853Z,3.04
2019-03-22T01:30:18.110Z,3.03
2019-03-22T01:32:47.544Z,2.95
2019-03-22T01:35:17.281Z,2.72
2019-03-22T01:37:46.719Z,2.64
2019-03-22T01:40:16.799Z,2.49
2019-03-22T01:42:46.240Z,2.59
2019-03-22T01:45:17.426Z,2.73
2019-03-22T01:47:46.866Z,2.66
2019-03-22T01:50:18.131Z,2.59
2019-03-22T01:52:47.636Z,2.52
2019-03-22T01:55:17.060Z,2.54
2019-03-22T01:57:52.916Z,2.49
2019-03-22T02:00:18.962Z,2.47
2019-03-22T02:02:48.379Z,2.41
2019-03-22T02:05:17.901Z,2.45
2019-03-22T02:07:47.320Z,2.48
2019-03-22T02:10:18.554Z,2.26
2019-03-22T02:12:47.977Z,2.30
2019-03-22T02:15:18.292Z,2.33
2019-03-22T02:17:47.795Z,2.40
2019-03-22T02:20:18.768Z,2.50
2019-03-22T02:22:48.208Z,2.60
2019-03-22T02:25:17.709Z,2.61
2019-03-22T02:27:47.454Z,2.58
2019-03-22T02:30:18.134Z,2.52
2019-03-22T02:32:47.642Z,2.58
2019-03-22T02:35:28.521Z,2.57
2019-03-22T02:37:48.231Z,2.55
2019-03-22T02:40:17.938Z,2.44
2019-03-22T02:42:47.374Z,2.46
2019-03-22T02:45:17.388Z,2.44
2019-03-22T02:47:46.845Z,2.48
2019-03-22T02:50:19.557Z,2.41
2019-03-22T02:52:47.570Z,2.39
2019-03-22T02:55:17.266Z,2.33
2019-03-22T02:57:46.813Z,2.29
2019-03-22T03:00:18.141Z,2.21
2019-03-22T03:02:47.600Z,2.10
2019-03-22T03:05:17.172Z,2.09
2019-03-22T03:07:46.656Z,2.16
2019-03-22T03:10:16.985Z,2.18
2019-03-22T03:12:46.514Z,2.21
2019-03-22T03:15:19.745Z,2.17
2019-03-22T03:17:49.470Z,2.08
2019-03-22T03:20:20.454Z,2.13
2019-03-22T03:22:49.904Z,2.14
2019-03-22T03:25:19.507Z,2.11
2019-03-22T03:27:49.026Z,2.07
2019-03-22T03:30:22.535Z,2.12
2019-03-22T03:32:51.987Z,2.02
2019-03-22T03:35:21.408Z,2.09
2019-03-22T03:37:50.869Z,1.95
2019-03-22T03:40:20.393Z,1.90
2019-03-22T03:42:49.806Z,1.88
2019-03-22T03:45:36.812Z,1.87
2019-03-22T03:48:11.117Z,1.95
2019-03-22T03:50:40.826Z,1.92
2019-03-22T03:53:10.343Z,1.85
2019-03-22T03:55:39.780Z,1.81
2019-03-22T03:58:09.304Z,1.79
2019-03-22T04:00:38.736Z,1.83
2019-03-22T04:03:08.188Z,1.94
2019-03-22T04:05:37.673Z,1.94
2019-03-22T04:08:07.111Z,1.89
2019-03-22T04:10:37.054Z,1.97
2019-03-22T04:13:06.500Z,1.99
2019-03-22T04:15:35.939Z,2.08
2019-03-22T04:18:05.450Z,2.05
2019-03-22T04:20:34.876Z,1.96
2019-03-22T04:23:04.328Z,1.84
2019-03-22T04:25:33.759Z,1.89
2019-03-22T04:28:03.201Z,1.83
2019-03-22T04:30:32.652Z,1.80
2019-03-22T04:33:02.156Z,1.64
2019-03-22T04:35:31.587Z,1.54
2019-03-22T04:38:01.025Z,1.50
2019-03-22T04:40:31.001Z,1.42
2019-03-22T04:43:00.501Z,1.51
2019-03-22T04:45:31.978Z,1.56
2019-03-22T04:48:11.599Z,1.60
2019-03-22T04:50:42.554Z,1.54
2019-03-22T04:53:16.771Z,1.57
2019-03-22T04:55:50.777Z,1.49
2019-03-22T04:58:22.467Z,1.50
2019-03-22T05:00:53.941Z,1.37
2019-03-22T05:03:25.537Z,1.33
2019-03-22T05:05:57.711Z,1.34
2019-03-22T05:08:29.355Z,1.36
2019-03-22T05:11:01.825Z,1.12
2019-03-22T05:13:33.018Z,1.19
2019-03-22T05:16:03.361Z,1.16
2019-03-22T05:18:34.417Z,1.17
2019-03-22T05:21:05.291Z,1.27
2019-03-22T05:23:34.876Z,1.37
2019-03-22T05:26:05.396Z,1.38
2019-03-22T05:28:35.279Z,1.29
2019-03-22T05:31:12.200Z,1.36
2019-03-22T05:33:41.701Z,1.25
2019-03-22T05:36:11.128Z,1.16
2019-03-22T05:38:40.601Z,1.23
2019-03-22T05:41:10.010Z,1.33
2019-03-22T05:43:39.453Z,1.31
2019-03-22T05:46:08.889Z,1.33
2019-03-22T05:48:38.339Z,1.31
2019-03-22T05:51:08.038Z,1.33
2019-03-22T05:53:37.501Z,1.38
2019-03-22T05:56:06.929Z,1.49
2019-03-22T05:58:36.382Z,1.58
2019-03-22T06:01:05.840Z,1.55
2019-03-22T06:03:35.268Z,1.62
2019-03-22T06:06:04.713Z,1.67
2019-03-22T06:08:34.151Z,1.69
2019-03-22T06:11:03.585Z,1.72
2019-03-22T06:13:33.017Z,1.66
2019-03-22T06:16:02.479Z,1.67
2019-03-22T06:18:31.924Z,1.75
2019-03-22T06:21:01.374Z,1.89
2019-03-22T06:23:30.805Z,1.90
2019-03-22T06:26:00.248Z,1.96
2019-03-22T06:28:30.027Z,2.02
2019-03-22T06:30:59.483Z,2.14
2019-03-22T06:33:28.911Z,2.16
2019-03-22T06:35:58.352Z,2.16
2019-03-22T06:38:27.792Z,2.27
2019-03-22T06:40:57.235Z,2.31
2019-03-22T06:43:26.673Z,2.39
2019-03-22T06:45:56.122Z,2.41
2019-03-22T06:48:25.561Z,2.46
2019-03-22T06:50:54.998Z,2.49
2019-03-22T06:53:24.432Z,2.61
2019-03-22T06:55:53.872Z,2.65
2019-03-22T06:58:24.332Z,2.62
2019-03-22T07:00:53.927Z,2.71
2019-03-22T07:03:23.359Z,2.77
2019-03-22T07:05:52.817Z,2.86
2019-03-22T07:08:22.254Z,2.94
2019-03-22T07:10:51.705Z,3.03
2019-03-22T07:13:21.457Z,3.09
2019-03-22T07:15:50.905Z,3.17
2019-03-22T07:18:20.681Z,3.21
2019-03-22T07:20:50.146Z,3.29
2019-03-22T07:23:19.591Z,3.34
2019-03-22T07:25:49.129Z,3.42
2019-03-22T07:28:18.609Z,3.49
2019-03-22T07:30:48.057Z,3.60
2019-03-22T07:33:17.504Z,3.67
2019-03-22T07:35:46.937Z,3.85
2019-03-22T07:38:16.628Z,3.87
2019-03-22T07:40:46.078Z,3.93
2019-03-22T07:43:15.565Z,4.04
2019-03-22T07:45:45.001Z,4.08
2019-03-22T07:48:14.433Z,4.20
2019-03-22T07:50:43.885Z,4.50
2019-03-22T07:53:13.323Z,4.59
2019-03-22T07:55:42.840Z,4.54
2019-03-22T07:58:12.270Z,4.49
2019-03-22T08:00:41.788Z,4.49
2019-03-22T08:03:11.234Z,4.55
2019-03-22T08:05:50.716Z,4.63
2019-03-22T08:08:11.835Z,4.70
2019-03-22T08:10:41.276Z,4.76
2019-03-22T08:13:10.780Z,4.77
2019-03-22T08:15:40.223Z,4.85
2019-03-22T08:18:09.661Z,4.92
2019-03-22T08:20:39.178Z,4.98
2019-03-22T08:23:22.930Z,5.06
2019-03-22T08:25:52.555Z,5.13
2019-03-22T08:28:21.984Z,5.23
2019-03-22T08:30:51.432Z,5.26
2019-03-22T08:33:20.936Z,5.35
2019-03-22T08:35:50.389Z,5.42
2019-03-22T08:38:19.845Z,5.50
2019-03-22T08:40:49.312Z,5.55
2019-03-22T08:43:18.740Z,5.62
2019-03-22T08:45:48.182Z,5.65
2019-03-22T08:48:17.613Z,5.72
2019-03-22T08:50:47.045Z,5.78
2019-03-22T08:53:16.536Z,5.87
2019-03-22T08:55:45.960Z,5.91
2019-03-22T08:58:18.294Z,5.99
2019-03-22T09:00:57.231Z,6.02
2019-03-22T09:03:17.892Z,6.08
2019-03-22T09:05:47.340Z,6.17
2019-03-22T09:08:16.790Z,6.23
2019-03-22T09:10:46.331Z,6.30
2019-03-22T09:13:15.788Z,6.38
2019-03-22T09:15:45.220Z,6.83
2019-03-22T09:18:15.651Z,6.85
2019-03-22T09:20:45.296Z,6.86
2019-03-22T09:23:14.755Z,7.05
2019-03-22T09:25:44.262Z,7.13
2019-03-22T09:28:13.710Z,7.12
2019-03-22T09:30:43.180Z,7.19
2019-03-22T09:33:13.457Z,7.28
2019-03-22T09:35:43.100Z,7.40
2019-03-22T09:38:13.546Z,7.43
2019-03-22T09:40:43.505Z,7.60
2019-03-22T09:43:12.894Z,7.93
2019-03-22T09:45:42.383Z,8.29
2019-03-22T09:48:11.787Z,8.43
2019-03-22T09:50:46.943Z,8.38
2019-03-22T09:53:16.446Z,8.38
2019-03-22T09:55:45.919Z,8.69
2019-03-22T09:58:17.217Z,9.09
2019-03-22T10:00:48.588Z,9.29
2019-03-22T10:03:17.877Z,9.28
2019-03-22T10:05:47.281Z,9.34
2019-03-22T10:08:16.733Z,9.35
2019-03-22T10:10:46.175Z,9.42
2019-03-22T10:13:15.673Z,9.44
2019-03-22T10:15:45.089Z,9.51
2019-03-22T10:18:14.552Z,10.21
2019-03-22T10:20:43.999Z,10.52
2019-03-22T10:23:13.498Z,10.84
2019-03-22T10:25:42.961Z,10.88
2019-03-22T10:28:12.399Z,10.95
2019-03-22T10:30:41.886Z,10.70
2019-03-22T10:33:22.169Z,10.92
2019-03-22T10:35:42.533Z,11.43
2019-03-22T10:38:16.509Z,11.22
2019-03-22T10:40:43.189Z,11.44
2019-03-22T10:43:12.652Z,11.51
2019-03-22T10:45:42.128Z,11.33
2019-03-22T10:48:11.598Z,11.31
2019-03-22T10:50:41.020Z,11.33
2019-03-22T10:53:10.562Z,12.00
2019-03-22T10:55:40.010Z,12.17
2019-03-22T10:58:20.310Z,12.24
2019-03-22T11:00:40.778Z,12.07
2019-03-22T11:03:10.252Z,12.01
2019-03-22T11:05:39.716Z,12.24
2019-03-22T11:08:09.435Z,12.26
2019-03-22T11:10:38.886Z,12.21
2019-03-22T11:13:08.340Z,12.50
2019-03-22T11:15:47.951Z,12.98
2019-03-22T11:18:09.284Z,13.30
2019-03-22T11:20:38.744Z,13.50
2019-03-22T11:23:08.203Z,13.76
2019-03-22T11:25:37.659Z,13.45
2019-03-22T11:28:07.105Z,13.52
2019-03-22T11:30:36.832Z,13.29
2019-03-22T11:33:06.687Z,13.46
2019-03-22T11:35:37.217Z,13.75
2019-03-22T11:38:06.849Z,13.74
2019-03-22T11:40:36.308Z,13.90
2019-03-22T11:43:08.801Z,14.52
2019-03-22T11:45:37.025Z,14.43
2019-03-22T11:48:06.536Z,14.47
2019-03-22T11:50:36.008Z,14.40
2019-03-22T11:53:05.906Z,14.46
2019-03-22T11:55:35.367Z,14.44
2019-03-22T11:58:04.888Z,14.45
2019-03-22T12:00:34.342Z,14.42
2019-03-22T12:03:04.055Z,14.31
2019-03-22T12:05:40.368Z,14.18
2019-03-22T12:08:04.816Z,14.19
2019-03-22T12:10:34.281Z,14.56
2019-03-22T12:13:03.725Z,14.45
2019-03-22T12:15:33.175Z,14.54
2019-03-22T12:18:02.623Z,14.62
2019-03-22T12:20:32.087Z,14.60
2019-03-22T12:23:01.549Z,14.61
2019-03-22T12:25:30.990Z,14.55
2019-03-22T12:28:00.439Z,14.72
2019-03-22T12:30:29.896Z,15.25
2019-03-22T12:32:59.363Z,15.46
2019-03-22T12:35:28.822Z,15.70
2019-03-22T12:37:58.253Z,15.71
2019-03-22T12:40:27.715Z,15.67
2019-03-22T12:42:57.156Z,15.51
2019-03-22T12:45:29.781Z,15.49
2019-03-22T12:47:59.247Z,15.46
2019-03-22T12:50:28.783Z,15.54
2019-03-22T12:52:58.223Z,15.60
2019-03-22T12:55:27.679Z,15.73
2019-03-22T12:57:59.365Z,15.80
2019-03-22T13:00:28.641Z,16.01
2019-03-22T13:02:58.378Z,16.14
2019-03-22T13:05:27.837Z,16.27
2019-03-22T13:07:57.258Z,16.37
2019-03-22T13:10:30.150Z,16.45
2019-03-22T13:12:59.608Z,16.51
2019-03-22T13:15:29.059Z,16.48
2019-03-22T13:17:58.497Z,16.54
2019-03-22T13:20:28.295Z,16.61
2019-03-22T13:22:57.735Z,16.76
2019-03-22T13:25:27.192Z,16.74
2019-03-22T13:27:56.636Z,16.88
2019-03-22T13:30:37.305Z,17.04
2019-03-22T13:33:07.093Z,17.08
2019-03-22T13:35:36.554Z,17.10
2019-03-22T13:38:06.063Z,17.06
2019-03-22T13:40:35.528Z,17.17
2019-03-22T13:43:04.977Z,17.29
2019-03-22T13:45:34.415Z,17.34
2019-03-22T13:48:03.860Z,17.21
2019-03-22T13:50:33.295Z,17.35
2019-03-22T13:53:02.755Z,17.30
2019-03-22T13:55:32.178Z,17.43
2019-03-22T13:58:01.630Z,17.56
2019-03-22T14:00:31.062Z,17.56
2019-03-22T14:03:02.956Z,17.63
2019-03-22T14:05:31.674Z,17.49
2019-03-22T14:08:01.155Z,17.54
2019-03-22T14:10:33.671Z,17.64
2019-03-22T14:13:05.827Z,17.52
2019-03-22T14:15:35.343Z,17.51
2019-03-22T14:18:05.261Z,17.53
2019-03-22T14:20:34.693Z,17.55
2019-03-22T14:23:05.041Z,17.60
2019-03-22T14:25:34.464Z,17.68
2019-03-22T14:28:03.916Z,17.66
2019-03-22T14:30:33.361Z,17.80
2019-03-22T14:33:12.585Z,17.71
2019-03-22T14:35:33.972Z,17.67
2019-03-22T14:38:03.423Z,17.66
2019-03-22T14:40:32.870Z,17.63
2019-03-22T14:43:02.335Z,17.57
2019-03-22T14:45:31.790Z,17.66
2019-03-22T14:48:01.243Z,17.86
2019-03-22T14:50:30.678Z,17.88
2019-03-22T14:53:00.146Z,17.80
2019-03-22T14:55:29.575Z,17.92
2019-03-22T14:57:59.019Z,18.00
2019-03-22T15:00:28.460Z,17.86
2019-03-22T15:02:57.906Z,17.84
2019-03-22T15:05:27.645Z,17.88
2019-03-22T15:07:57.360Z,17.87
2019-03-22T15:10:26.804Z,17.99
2019-03-22T15:12:56.251Z,17.90
2019-03-22T15:15:27.334Z,17.84
2019-03-22T15:18:01.137Z,17.80
2019-03-22T15:20:39.107Z,17.74
2019-03-22T15:23:19.283Z,17.92
2019-03-22T15:26:05.357Z,18.00
2019-03-22T15:28:52.720Z,18.01
2019-03-22T15:31:21.899Z,18.07
2019-03-22T15:33:58.428Z,18.17
2019-03-22T15:36:41.181Z,18.20
2019-03-22T15:39:21.791Z,18.27
2019-03-22T15:41:51.321Z,18.54
2019-03-22T15:44:20.920Z,18.72
2019-03-22T15:46:50.395Z,18.91
2019-03-22T15:49:19.850Z,19.21
2019-03-22T15:51:49.288Z,19.55
2019-03-22T15:54:18.737Z,19.80
2019-03-22T15:56:48.172Z,20.50
2019-03-22T15:59:17.623Z,21.47
2019-03-22T16:01:47.056Z,21.49
2019-03-22T16:04:18.619Z,21.36
2019-03-22T16:06:47.822Z,21.39
2019-03-22T16:09:17.282Z,21.49
2019-03-22T16:11:46.718Z,21.32
2019-03-22T16:14:16.176Z,20.59
2019-03-22T16:16:45.622Z,20.60
2019-03-22T16:19:15.077Z,20.46
2019-03-22T16:21:44.526Z,19.78
2019-03-22T16:24:14.310Z,19.29
2019-03-22T16:26:43.750Z,19.41
2019-03-22T16:29:13.200Z,18.96
2019-03-22T16:31:42.649Z,18.95
2019-03-22T16:34:12.106Z,19.12
2019-03-22T16:36:41.618Z,19.06
2019-03-22T16:39:11.055Z,18.82
2019-03-22T16:41:40.504Z,18.39
2019-03-22T16:44:09.957Z,18.43
2019-03-22T16:46:39.508Z,18.28
2019-03-22T16:49:08.906Z,18.07
2019-03-22T16:51:38.347Z,17.72
2019-03-22T16:54:07.800Z,17.70
2019-03-22T16:56:37.246Z,17.29
2019-03-22T16:59:06.686Z,17.34
2019-03-22T17:01:36.958Z,16.98
2019-03-22T17:04:06.423Z,16.74
2019-03-22T17:06:35.863Z,16.68
2019-03-22T17:09:07.058Z,16.49
2019-03-22T17:11:36.494Z,16.37
2019-03-22T17:14:05.943Z,16.32
2019-03-22T17:16:35.393Z,16.20
2019-03-22T17:19:04.858Z,16.01
2019-03-22T17:21:34.293Z,15.95
2019-03-22T17:24:03.783Z,15.73
2019-03-22T17:26:33.220Z,15.59
2019-03-22T17:29:02.678Z,15.51
2019-03-22T17:31:32.111Z,15.37
2019-03-22T17:34:01.563Z,15.35
2019-03-22T17:36:31.022Z,15.28
2019-03-22T17:39:00.462Z,15.14
2019-03-22T17:41:29.910Z,15.01
2019-03-22T17:43:59.363Z,14.96
2019-03-22T17:46:28.808Z,14.84
2019-03-22T17:48:58.260Z,14.68
2019-03-22T17:51:27.692Z,14.65
2019-03-22T17:53:57.152Z,14.62
2019-03-22T17:56:26.619Z,14.53
2019-03-22T17:58:56.064Z,14.43
2019-03-22T18:01:25.508Z,14.28
2019-03-22T18:03:55.265Z,14.13
2019-03-22T18:06:25.054Z,14.08
2019-03-22T18:08:54.554Z,13.93
2019-03-22T18:11:24.001Z,13.88
2019-03-22T18:13:53.639Z,13.82
2019-03-22T18:16:23.059Z,13.75
2019-03-22T18:18:52.874Z,13.58
2019-03-22T18:21:22.367Z,13.53
2019-03-22T18:23:51.906Z,13.46
2019-03-22T18:26:21.339Z,13.40
2019-03-22T18:28:50.783Z,13.36
2019-03-22T18:31:20.256Z,13.31
2019-03-22T18:33:49.697Z,13.24
2019-03-22T18:36:19.158Z,13.10
2019-03-22T18:38:48.601Z,13.02
2019-03-22T18:41:18.077Z,12.91
2019-03-22T18:43:47.491Z,12.83
2019-03-22T18:46:16.944Z,12.71
2019-03-22T18:48:46.389Z,12.63
2019-03-22T18:51:15.837Z,12.55
2019-03-22T18:53:45.286Z,12.52
2019-03-22T18:56:14.751Z,12.48
2019-03-22T18:58:44.194Z,12.40
2019-03-22T19:01:13.657Z,12.32
2019-03-22T19:03:43.100Z,12.27
2019-03-22T19:06:12.543Z,12.19
2019-03-22T19:08:41.991Z,12.08
2019-03-22T19:11:11.452Z,12.03
2019-03-22T19:13:40.894Z,11.98
2019-03-22T19:16:10.344Z,11.90
2019-03-22T19:18:39.780Z,11.89
2019-03-22T19:21:09.228Z,11.80
2019-03-22T19:23:38.668Z,11.71
2019-03-22T19:26:08.128Z,11.62
2019-03-22T19:28:37.567Z,11.58
2019-03-22T19:31:07.017Z,11.49
2019-03-22T19:33:36.452Z,11.41
2019-03-22T19:36:05.904Z,11.28
2019-03-22T19:38:35.341Z,11.12
2019-03-22T19:41:04.795Z,11.04
2019-03-22T19:43:34.532Z,11.03
2019-03-22T19:46:04.056Z,10.98
2019-03-22T19:48:33.494Z,10.92
2019-03-22T19:51:02.940Z,10.91
2019-03-22T19:53:32.396Z,10.89
2019-03-22T19:56:01.834Z,10.82
2019-03-22T19:58:31.276Z,10.72
2019-03-22T20:01:00.734Z,10.77
2019-03-22T20:03:30.177Z,10.75
2019-03-22T20:05:59.624Z,10.82
2019-03-22T20:08:29.074Z,10.83
2019-03-22T20:10:58.517Z,10.81
2019-03-22T20:13:27.958Z,10.81
2019-03-22T20:15:57.420Z,10.81
2019-03-22T20:18:26.848Z,10.75
2019-03-22T20:20:56.622Z,10.71
2019-03-22T20:23:26.060Z,10.62
2019-03-22T20:25:55.519Z,10.59
2019-03-22T20:28:24.969Z,10.58
2019-03-22T20:30:54.425Z,10.52
2019-03-22T20:33:23.866Z,10.48
2019-03-22T20:35:53.387Z,10.40
2019-03-22T20:38:22.826Z,10.16
2019-03-22T20:40:52.284Z,10.14
2019-03-22T20:43:21.717Z,10.15
2019-03-22T20:45:51.168Z,10.15
2019-03-22T20:48:20.883Z,10.06
2019-03-22T20:50:50.348Z,10.07
2019-03-22T20:53:20.112Z,10.02
2019-03-22T20:55:49.551Z,9.94
2019-03-22T20:58:19.000Z,9.82
2019-03-22T21:00:48.440Z,9.74
2019-03-22T21:03:17.884Z,9.73
2019-03-22T21:05:47.321Z,9.75
2019-03-22T21:08:16.768Z,9.60
2019-03-22T21:10:46.201Z,9.46
2019-03-22T21:13:15.654Z,9.25
2019-03-22T21:15:45.090Z,9.11
2019-03-22T21:18:14.533Z,9.02
2019-03-22T21:20:43.972Z,9.02
2019-03-22T21:23:13.420Z,8.85
2019-03-22T21:25:42.866Z,8.78
2019-03-22T21:28:12.314Z,8.78
2019-03-22T21:30:41.748Z,8.62
2019-03-22T21:33:11.191Z,8.51
2019-03-22T21:35:40.634Z,8.46
2019-03-22T21:38:11.156Z,8.48
2019-03-22T21:40:40.811Z,8.50
2019-03-22T21:43:10.260Z,8.42
2019-03-22T21:45:39.700Z,8.35
2019-03-22T21:48:09.144Z,8.22
2019-03-22T21:50:38.581Z,8.07
2019-03-22T21:53:08.033Z,8.14
2019-03-22T21:55:37.469Z,7.99
2019-03-22T21:58:06.915Z,7.96
2019-03-22T22:00:36.356Z,7.95
2019-03-22T22:03:05.947Z,7.90
2019-03-22T22:05:35.385Z,7.87
2019-03-22T22:08:05.095Z,7.79
2019-03-22T22:10:34.529Z,7.81
2019-03-22T22:13:03.974Z,7.75
2019-03-22T22:15:33.407Z,7.73
2019-03-22T22:18:02.852Z,7.78
2019-03-22T22:20:32.303Z,7.69
2019-03-22T22:23:01.748Z,7.66
2019-03-22T22:25:31.183Z,7.51
2019-03-22T22:28:00.634Z,7.44
2019-03-22T22:30:30.069Z,7.32
2019-03-22T22:32:59.525Z,7.30
2019-03-22T22:35:28.960Z,7.15
2019-03-22T22:37:58.394Z,7.03
2019-03-22T22:40:27.902Z,7.01
2019-03-22T22:42:57.339Z,7.02
2019-03-22T22:45:27.077Z,7.01
2019-03-22T22:47:56.520Z,6.89
2019-03-22T22:50:25.961Z,6.85
2019-03-22T22:52:55.418Z,6.90
2019-03-22T22:55:24.927Z,6.99
2019-03-22T22:57:54.404Z,6.97
2019-03-22T23:00:25.537Z,6.86
2019-03-22T23:02:55.149Z,6.73
2019-03-22T23:05:24.592Z,6.71
2019-03-22T23:07:54.033Z,6.73
2019-03-22T23:10:23.486Z,6.65
2019-03-22T23:12:52.925Z,6.59
2019-03-22T23:15:22.369Z,6.59
2019-03-22T23:17:51.804Z,6.70
2019-03-22T23:20:21.236Z,6.61
2019-03-22T23:22:50.666Z,6.62
2019-03-22T23:25:20.108Z,6.55
2019-03-22T23:27:49.823Z,6.58
2019-03-22T23:30:19.271Z,6.46
2019-03-22T23:32:48.715Z,6.44
2019-03-22T23:35:18.156Z,6.36
2019-03-22T23:37:47.597Z,6.26
2019-03-22T23:40:17.113Z,6.19
2019-03-22T23:42:46.552Z,6.22
2019-03-22T23:45:15.991Z,5.95
2019-03-22T23:47:45.427Z,5.96
2019-03-22T23:50:15.583Z,5.96
2019-03-22T23:52:45.018Z,5.91
2019-03-22T23:55:14.478Z,5.87
2019-03-22T23:57:43.904Z,5.80
